createdAt,value
2022-11-03T01:59:40.421Z,8.56
2022-11-03T03:50:52.539Z,8.45
2022-11-03T04:38:50.813Z,8.24
2022-11-03T04:48:50.328Z,8.19
2022-11-03T04:51:19.959Z,8.19
2022-11-03T04:53:54.665Z,8.18
2022-11-03T04:56:29.372Z,8.28
2022-11-03T04:58:58.100Z,8.32
2022-11-03T05:01:31.622Z,8.24
2022-11-03T05:03:59.869Z,8.19
2022-11-03T05:06:29.670Z,8.14
2022-11-03T05:09:05.676Z,8.05
2022-11-03T05:11:39.407Z,8.08
2022-11-03T05:14:32.746Z,8.17
2022-11-03T05:17:02.542Z,8.18
2022-11-03T05:20:01.429Z,8.12
2022-11-03T05:22:42.118Z,8.07
2022-11-03T05:25:34.148Z,8.14
2022-11-03T05:28:02.368Z,8.10
2022-11-03T05:30:30.130Z,8.01
2022-11-03T05:33:30.684Z,8.17
2022-11-03T05:36:00.980Z,8.05
2022-11-03T05:38:36.374Z,8.07
2022-11-03T05:41:12.198Z,8.08
2022-11-03T05:44:23.318Z,8.14
2022-11-03T05:46:51.977Z,8.00
2022-11-03T05:49:20.244Z,8.10
2022-11-03T05:54:44.859Z,8.05
2022-11-03T05:57:15.137Z,8.17
2022-11-03T05:59:45.223Z,8.14
2022-11-03T06:02:37.514Z,8.12
2022-11-03T06:05:23.102Z,8.11
2022-11-03T06:08:18.747Z,8.22
2022-11-03T06:11:23.928Z,8.11
2022-11-03T06:13:52.063Z,8.15
2022-11-03T06:16:46.879Z,8.19
2022-11-03T06:19:31.307Z,8.11
2022-11-03T06:22:13.946Z,8.11
2022-11-03T06:24:41.771Z,8.19
2022-11-03T06:27:20.698Z,8.07
2022-11-03T06:29:56.120Z,8.01
2022-11-03T06:32:24.375Z,8.15
2022-11-03T06:34:57.541Z,8.22
2022-11-03T06:37:33.455Z,8.12
2022-11-03T06:43:24.779Z,8.21
2022-11-03T06:45:54.892Z,8.21
2022-11-03T06:48:30.677Z,8.21
2022-11-03T06:50:58.600Z,8.28
2022-11-03T06:53:29.471Z,8.17
2022-11-03T06:55:58.678Z,8.19
2022-11-03T06:58:28.384Z,8.21
2022-11-03T07:01:03.324Z,8.22
2022-11-03T07:03:37.658Z,8.21
2022-11-03T07:06:26.161Z,8.24
2022-11-03T07:08:56.309Z,8.30
2022-11-03T07:11:29.791Z,8.32
2022-11-03T07:17:02.215Z,8.30
2022-11-03T07:19:33.916Z,8.30
2022-11-03T07:22:06.286Z,8.32
2022-11-03T07:24:41.256Z,8.33
2022-11-03T07:27:34.926Z,8.33
2022-11-03T07:30:19.608Z,8.39
2022-11-03T07:32:50.688Z,8.50
2022-11-03T07:35:17.736Z,8.48
2022-11-03T07:40:40.248Z,8.60
2022-11-03T07:43:24.563Z,8.57
2022-11-03T07:45:53.164Z,8.59
2022-11-03T07:48:39.163Z,8.64
2022-11-03T07:51:17.430Z,8.63
2022-11-03T07:53:47.507Z,8.67
2022-11-03T07:56:20.422Z,8.71
2022-11-03T07:58:59.953Z,8.73
2022-11-03T08:01:39.405Z,8.76
2022-11-03T08:04:35.359Z,8.76
2022-11-03T08:07:03.847Z,8.83
2022-11-03T08:09:31.823Z,8.81
2022-11-03T08:12:00.759Z,8.81
2022-11-03T08:17:26.039Z,8.91
2022-11-03T08:19:53.850Z,8.98
2022-11-03T08:22:25.742Z,9.00
2022-11-03T08:24:53.750Z,8.97
2022-11-03T08:27:21.785Z,9.07
2022-11-03T08:32:41.949Z,9.08
2022-11-03T08:35:09.741Z,9.11
2022-11-03T08:37:42.754Z,9.22
2022-11-03T08:40:10.506Z,9.33
2022-11-03T08:42:37.852Z,9.36
2022-11-03T08:45:06.466Z,9.44
2022-11-03T08:47:33.827Z,9.33
2022-11-03T08:50:01.786Z,9.49
2022-11-03T08:52:38.830Z,9.53
2022-11-03T08:55:06.195Z,9.53
2022-11-03T08:57:38.866Z,9.69
2022-11-03T09:00:07.997Z,9.70
2022-11-03T09:02:35.870Z,9.70
2022-11-03T09:05:05.700Z,9.77
2022-11-03T09:10:33.309Z,9.74
2022-11-03T09:13:01.780Z,9.93
2022-11-03T09:15:30.693Z,9.90
2022-11-03T09:17:57.905Z,9.95
2022-11-03T09:20:30.848Z,10.04
2022-11-03T09:23:02.891Z,9.99
2022-11-03T09:25:29.819Z,10.08
2022-11-03T09:27:57.789Z,10.11
2022-11-03T09:30:25.814Z,10.08
2022-11-03T09:32:59.494Z,10.25
2022-11-03T09:35:29.813Z,10.30
2022-11-03T09:37:58.077Z,10.33
2022-11-03T09:40:27.773Z,10.29
2022-11-03T09:42:59.548Z,10.49
2022-11-03T09:45:30.211Z,10.59
2022-11-03T09:48:07.154Z,10.63
2022-11-03T09:50:36.545Z,10.53
2022-11-03T09:53:04.228Z,10.59
2022-11-03T09:55:38.759Z,10.60
2022-11-03T09:58:13.965Z,10.59
2022-11-03T10:00:41.981Z,10.70
2022-11-03T10:03:16.874Z,10.90
2022-11-03T10:05:45.550Z,10.88
2022-11-03T10:08:35.757Z,11.05
2022-11-03T10:17:19.210Z,11.23
2022-11-03T10:19:49.803Z,11.39
2022-11-03T10:22:20.132Z,11.39
2022-11-03T10:24:48.981Z,11.42
2022-11-03T10:27:25.443Z,11.59
2022-11-03T10:30:16.863Z,11.62
2022-11-03T10:32:43.861Z,11.65
2022-11-03T10:35:37.097Z,11.57
2022-11-03T10:38:27.536Z,11.73
2022-11-03T10:40:56.943Z,11.62
2022-11-03T10:43:23.758Z,11.76
2022-11-03T10:46:29.698Z,11.70
2022-11-03T10:49:29.997Z,11.74
2022-11-03T10:52:26.543Z,11.87
2022-11-03T10:54:56.454Z,11.94
2022-11-03T10:57:25.059Z,11.88
2022-11-03T10:59:54.066Z,11.90
2022-11-03T11:02:31.335Z,12.02
2022-11-03T11:05:02.065Z,12.11
2022-11-03T11:07:42.020Z,12.21
2022-11-03T11:10:28.068Z,12.31
2022-11-03T11:13:22.249Z,12.46
2022-11-03T11:15:57.826Z,12.60
2022-11-03T11:18:28.561Z,12.57
2022-11-03T11:20:57.326Z,12.69
2022-11-03T11:23:30.277Z,12.64
2022-11-03T11:26:39.145Z,12.64
2022-11-03T11:29:14.093Z,12.61
2022-11-03T11:32:38.666Z,12.70
2022-11-03T11:35:12.531Z,12.80
2022-11-03T11:40:32.001Z,13.04
2022-11-03T11:43:06.895Z,12.97
2022-11-03T11:46:16.295Z,13.03
2022-11-03T11:48:44.754Z,13.00
2022-11-03T11:51:13.062Z,13.08
2022-11-03T11:56:51.972Z,13.28
2022-11-03T11:59:26.478Z,13.08
2022-11-03T12:01:57.059Z,13.21
2022-11-03T12:04:31.685Z,13.25
2022-11-03T12:07:00.139Z,13.31
2022-11-03T12:09:28.537Z,13.24
2022-11-03T12:12:00.761Z,13.35
2022-11-03T12:14:38.154Z,13.29
2022-11-03T12:20:36.813Z,13.46
2022-11-03T12:23:03.856Z,13.39
2022-11-03T12:25:41.767Z,13.28
2022-11-03T12:28:10.152Z,13.34
2022-11-03T12:30:40.059Z,13.40
2022-11-03T12:33:08.492Z,13.38
2022-11-03T12:35:40.939Z,13.49
2022-11-03T12:38:07.783Z,13.53
2022-11-03T12:41:20.241Z,13.59
2022-11-03T12:43:49.364Z,13.69
2022-11-03T12:46:19.659Z,13.74
2022-11-03T12:48:52.411Z,13.69
2022-11-03T12:51:22.462Z,13.81
2022-11-03T12:53:50.432Z,13.80
2022-11-03T12:56:18.778Z,13.79
2022-11-03T12:58:45.974Z,13.80
2022-11-03T13:04:06.264Z,13.89
2022-11-03T13:06:35.546Z,13.79
2022-11-03T13:12:17.870Z,13.73
2022-11-03T13:14:48.740Z,13.86
2022-11-03T13:17:19.729Z,13.81
2022-11-03T13:20:14.859Z,13.89
2022-11-03T13:22:42.010Z,13.91
2022-11-03T13:25:13.748Z,13.83
2022-11-03T13:30:33.899Z,13.84
2022-11-03T13:35:55.916Z,13.66
2022-11-03T13:38:23.861Z,13.80
2022-11-03T13:40:57.230Z,13.73
2022-11-03T13:43:25.837Z,13.67
2022-11-03T13:45:53.858Z,13.56
2022-11-03T13:49:23.105Z,13.72
2022-11-03T13:51:12.038Z,13.62
2022-11-03T13:59:48.824Z,13.72
2022-11-03T14:05:11.230Z,13.50
2022-11-03T14:07:45.007Z,13.52
2022-11-03T14:10:11.761Z,13.47
2022-11-03T14:12:39.793Z,13.50
2022-11-03T14:15:10.879Z,13.42
2022-11-03T14:17:39.630Z,13.40
2022-11-03T14:20:10.939Z,13.35
2022-11-03T14:22:38.616Z,13.36
2022-11-03T14:25:11.797Z,13.40
2022-11-03T14:27:39.958Z,13.34
2022-11-03T14:30:34.607Z,13.52
2022-11-03T14:33:03.738Z,13.47
2022-11-03T14:35:31.888Z,13.32
2022-11-03T14:37:59.814Z,13.36
2022-11-03T14:40:46.390Z,13.45
2022-11-03T14:43:13.806Z,13.47
2022-11-03T14:45:42.727Z,13.25
2022-11-03T14:48:10.086Z,13.32
2022-11-03T14:50:43.780Z,13.26
2022-11-03T14:53:11.832Z,13.26
2022-11-03T14:55:39.804Z,13.19
2022-11-03T14:58:08.150Z,13.25
2022-11-03T15:00:35.802Z,13.18
2022-11-03T15:03:05.097Z,13.08
2022-11-03T15:05:46.692Z,13.11
2022-11-03T15:08:39.912Z,12.96
2022-11-03T15:11:09.865Z,13.10
2022-11-03T15:13:41.729Z,12.76
2022-11-03T15:16:13.788Z,12.96
2022-11-03T15:18:44.028Z,12.90
2022-11-03T15:21:35.887Z,12.93
2022-11-03T15:26:51.766Z,12.85
2022-11-03T15:29:20.199Z,12.90
2022-11-03T15:31:51.821Z,12.77
2022-11-03T15:37:11.792Z,12.69
2022-11-03T15:39:39.760Z,12.69
2022-11-03T15:42:07.789Z,12.69
2022-11-03T15:44:39.843Z,12.83
2022-11-03T15:47:07.953Z,12.50
2022-11-03T15:49:39.825Z,12.43
2022-11-03T15:55:02.608Z,12.53
2022-11-03T15:57:36.075Z,12.33
2022-11-03T16:02:58.052Z,12.21
2022-11-03T16:05:25.915Z,12.26
2022-11-03T16:07:53.845Z,12.08
2022-11-03T16:10:21.804Z,12.12
2022-11-03T16:12:49.747Z,12.17
2022-11-03T16:15:21.759Z,12.17
2022-11-03T16:17:49.760Z,12.22
2022-11-03T16:20:17.826Z,12.04
2022-11-03T16:22:45.780Z,12.09
2022-11-03T16:25:16.688Z,12.11
2022-11-03T16:27:45.787Z,12.08
2022-11-03T16:30:39.857Z,11.99
2022-11-03T16:33:08.136Z,12.08
2022-11-03T16:35:35.892Z,12.18
2022-11-03T16:38:03.890Z,12.02
2022-11-03T16:40:31.769Z,12.09
2022-11-03T16:42:59.803Z,12.15
2022-11-03T16:45:31.357Z,12.22
2022-11-03T16:48:28.109Z,12.05
2022-11-03T16:50:59.845Z,12.09
2022-11-03T16:53:27.772Z,12.09
2022-11-03T16:55:55.849Z,11.93
2022-11-03T16:58:23.800Z,12.06
2022-11-03T17:00:51.881Z,11.90
2022-11-03T17:04:08.817Z,11.83
2022-11-03T17:06:35.880Z,11.77
2022-11-03T17:09:10.402Z,11.80
2022-11-03T17:11:37.895Z,11.84
2022-11-03T17:14:07.724Z,11.85
2022-11-03T17:16:35.847Z,11.84
2022-11-03T17:19:03.839Z,11.87
2022-11-03T17:21:36.841Z,11.88
2022-11-03T17:24:29.850Z,11.77
2022-11-03T17:27:01.762Z,11.81
2022-11-03T17:29:34.261Z,11.77
2022-11-03T17:32:05.546Z,11.74
2022-11-03T17:34:39.305Z,11.76
2022-11-03T17:37:08.014Z,11.81
2022-11-03T17:39:42.899Z,11.83
2022-11-03T17:42:26.105Z,11.77
2022-11-03T17:45:20.351Z,11.71
2022-11-03T17:51:11.912Z,11.66
2022-11-03T17:53:42.824Z,11.46
2022-11-03T17:56:29.479Z,11.52
2022-11-03T17:58:58.028Z,11.53
2022-11-03T18:01:27.239Z,11.49
2022-11-03T18:04:19.832Z,11.50
2022-11-03T18:06:47.807Z,11.53
2022-11-03T18:09:16.193Z,11.57
2022-11-03T18:12:07.792Z,11.48
2022-11-03T18:14:35.842Z,11.45
2022-11-03T18:17:03.857Z,11.42
2022-11-03T18:19:31.872Z,11.36
2022-11-03T18:22:25.825Z,11.43
2022-11-03T18:25:21.710Z,11.38
2022-11-03T18:27:50.000Z,11.43
2022-11-03T18:30:21.813Z,11.40
2022-11-03T18:32:54.866Z,11.36
2022-11-03T18:35:23.604Z,11.35
2022-11-03T18:37:51.810Z,11.15
2022-11-03T18:40:20.480Z,11.21
2022-11-03T18:42:47.821Z,11.19
2022-11-03T18:45:39.795Z,11.14
2022-11-03T18:48:07.848Z,11.11
2022-11-03T18:53:27.830Z,11.14
2022-11-03T18:56:01.069Z,11.00
2022-11-03T18:58:27.842Z,10.92
2022-11-03T19:01:00.831Z,10.91
2022-11-03T19:03:27.773Z,11.14
2022-11-03T19:05:57.448Z,11.02
2022-11-03T19:11:21.739Z,11.04
2022-11-03T19:13:50.848Z,10.97
2022-11-03T19:16:22.185Z,11.10
2022-11-03T19:18:50.745Z,11.05
2022-11-03T19:21:31.210Z,11.02
2022-11-03T19:23:59.047Z,11.19
2022-11-03T19:26:29.320Z,11.12
2022-11-03T19:29:03.103Z,11.15
2022-11-03T19:31:37.470Z,11.08
2022-11-03T19:34:11.126Z,11.14
2022-11-03T19:36:40.128Z,11.11
2022-11-03T19:39:20.990Z,11.11
2022-11-03T19:42:06.281Z,11.10
2022-11-03T19:44:39.946Z,11.23
2022-11-03T19:47:14.579Z,11.15
2022-11-03T19:49:46.933Z,11.16
2022-11-03T19:52:15.691Z,11.21
2022-11-03T19:54:48.079Z,11.18
2022-11-03T19:57:17.166Z,11.07
2022-11-03T19:59:44.808Z,11.05
2022-11-03T20:02:13.075Z,11.07
2022-11-03T20:04:47.299Z,11.12
2022-11-03T20:07:23.495Z,11.04
2022-11-03T20:09:53.846Z,11.01
2022-11-03T20:12:21.815Z,10.98
2022-11-03T20:14:49.743Z,11.02
2022-11-03T20:17:32.184Z,11.00
2022-11-03T20:19:59.761Z,11.02
2022-11-03T20:22:29.569Z,10.91
2022-11-03T20:25:00.647Z,10.98
2022-11-03T20:27:33.249Z,10.95
2022-11-03T20:30:04.906Z,11.01
2022-11-03T20:32:31.778Z,11.08
2022-11-03T20:34:59.826Z,11.18
2022-11-03T20:37:27.754Z,10.98
2022-11-03T20:40:23.043Z,10.97
2022-11-03T20:42:52.153Z,10.88
2022-11-03T20:45:24.560Z,10.95
2022-11-03T20:47:53.387Z,10.92
2022-11-03T20:50:22.310Z,11.02
2022-11-03T20:52:50.027Z,10.94
2022-11-03T20:55:22.250Z,10.87
2022-11-03T20:57:51.877Z,10.92
2022-11-03T21:00:48.000Z,10.95
2022-11-03T21:06:26.053Z,10.97
2022-11-03T21:08:53.765Z,11.05
2022-11-03T21:11:28.023Z,11.08
2022-11-03T21:14:07.831Z,10.95
2022-11-03T21:16:54.539Z,10.91
2022-11-03T21:20:02.107Z,10.92
2022-11-03T21:22:53.347Z,11.05
2022-11-03T21:25:26.093Z,10.88
2022-11-03T21:27:54.610Z,11.01
2022-11-03T21:30:27.774Z,10.87
2022-11-03T21:32:55.833Z,10.88
2022-11-03T21:35:23.776Z,10.84
2022-11-03T21:41:33.419Z,10.85
2022-11-03T21:44:15.149Z,10.85
2022-11-03T21:46:42.957Z,10.92
2022-11-03T21:49:29.174Z,10.90
2022-11-03T21:55:22.791Z,10.79
2022-11-03T21:57:49.791Z,10.59
2022-11-03T22:00:23.767Z,10.77
2022-11-03T22:02:56.967Z,10.76
2022-11-03T22:05:23.765Z,10.91
2022-11-03T22:07:52.079Z,11.01
2022-11-03T22:10:23.925Z,10.88
2022-11-03T22:12:51.773Z,10.77
2022-11-03T22:15:38.307Z,10.83
2022-11-03T22:18:36.791Z,10.79
2022-11-03T22:21:22.717Z,10.74
2022-11-03T22:24:08.247Z,10.80
2022-11-03T22:26:54.223Z,10.76
2022-11-03T22:29:40.537Z,10.72
2022-11-03T22:32:14.994Z,10.81
2022-11-03T22:35:00.242Z,10.92
2022-11-03T22:40:14.096Z,11.05
2022-11-03T22:45:51.882Z,11.00
2022-11-03T22:51:18.916Z,11.05
2022-11-03T22:54:06.166Z,11.07
2022-11-03T22:56:38.812Z,11.10
2022-11-03T22:59:13.828Z,11.05
2022-11-03T23:01:46.906Z,11.11
2022-11-03T23:04:13.888Z,11.01
2022-11-03T23:06:50.767Z,11.10
2022-11-03T23:09:21.989Z,11.14
2022-11-03T23:11:49.970Z,11.16
2022-11-03T23:14:18.377Z,10.94
2022-11-03T23:16:45.839Z,10.94
2022-11-03T23:19:33.799Z,10.88
2022-11-03T23:22:01.873Z,11.01
2022-11-03T23:24:59.591Z,11.01
2022-11-03T23:27:28.258Z,10.81
2022-11-03T23:29:55.835Z,11.02
2022-11-03T23:32:23.760Z,11.12
2022-11-03T23:34:51.813Z,10.95
2022-11-03T23:37:19.757Z,11.02
2022-11-03T23:39:47.821Z,10.87
2022-11-03T23:42:39.772Z,10.98
2022-11-03T23:45:26.961Z,10.98
2022-11-03T23:48:18.410Z,11.02
2022-11-03T23:50:45.779Z,10.83
2022-11-03T23:53:13.767Z,10.88
2022-11-03T23:56:00.169Z,11.05
2022-11-03T23:58:33.026Z,11.05
